sensor_id;sensor_type;location;lat;lon;timestamp;temperature;humidity
12264;DHT22;6194;49.010;8.414;2023-08-06T00:00:54;16.00;99.90
12264;DHT22;6194;49.010;8.414;2023-08-06T00:03:20;16.00;99.90
12264;DHT22;6194;49.010;8.414;2023-08-06T00:05:45;15.90;99.90
12264;DHT22;6194;49.010;8.414;2023-08-06T00:08:11;15.80;99.90
12264;DHT22;6194;49.010;8.414;2023-08-06T00:10:37;15.80;99.90
12264;DHT22;6194;49.010;8.414;2023-08-06T00:13:02;15.70;99.90
12264;DHT22;6194;49.010;8.414;2023-08-06T00:15:28;15.70;99.90
12264;DHT22;6194;49.010;8.414;2023-08-06T00:17:53;15.70;99.90
12264;DHT22;6194;49.010;8.414;2023-08-06T00:20:19;15.70;99.90
12264;DHT22;6194;49.010;8.414;2023-08-06T00:22:44;15.70;99.90
12264;DHT22;6194;49.010;8.414;2023-08-06T00:25:10;15.70;99.90
12264;DHT22;6194;49.010;8.414;2023-08-06T00:27:36;15.60;99.90
12264;DHT22;6194;49.010;8.414;2023-08-06T00:30:01;15.60;99.90
12264;DHT22;6194;49.010;8.414;2023-08-06T00:32:27;15.50;99.90
12264;DHT22;6194;49.010;8.414;2023-08-06T00:34:53;15.40;99.90
12264;DHT22;6194;49.010;8.414;2023-08-06T00:37:18;15.30;99.90
12264;DHT22;6194;49.010;8.414;2023-08-06T00:39:44;15.30;99.90
12264;DHT22;6194;49.010;8.414;2023-08-06T00:42:11;15.30;99.90
12264;DHT22;6194;49.010;8.414;2023-08-06T00:44:37;15.40;99.90
12264;DHT22;6194;49.010;8.414;2023-08-06T00:47:03;15.50;99.90
12264;DHT22;6194;49.010;8.414;2023-08-06T00:49:29;15.60;99.90
12264;DHT22;6194;49.010;8.414;2023-08-06T00:51:55;15.60;99.90
12264;DHT22;6194;49.010;8.414;2023-08-06T00:54:21;15.60;99.90
12264;DHT22;6194;49.010;8.414;2023-08-06T00:56:47;15.70;99.90
12264;DHT22;6194;49.010;8.414;2023-08-06T00:59:13;15.70;99.90
12264;DHT22;6194;49.010;8.414;2023-08-06T01:01:39;15.70;99.90
12264;DHT22;6194;49.010;8.414;2023-08-06T01:04:05;15.60;99.90
12264;DHT22;6194;49.010;8.414;2023-08-06T01:15:22;15.50;99.90
12264;DHT22;6194;49.010;8.414;2023-08-06T01:17:50;15.60;99.90
12264;DHT22;6194;49.010;8.414;2023-08-06T01:20:16;15.50;99.90
12264;DHT22;6194;49.010;8.414;2023-08-06T01:22:41;15.50;99.90
12264;DHT22;6194;49.010;8.414;2023-08-06T01:25:07;15.50;99.90
12264;DHT22;6194;49.010;8.414;2023-08-06T01:27:48;15.50;99.90
12264;DHT22;6194;49.010;8.414;2023-08-06T01:30:30;15.40;99.90
12264;DHT22;6194;49.010;8.414;2023-08-06T01:33:03;15.40;99.90
12264;DHT22;6194;49.010;8.414;2023-08-06T01:35:30;15.40;99.90
12264;DHT22;6194;49.010;8.414;2023-08-06T01:37:56;15.50;99.90
12264;DHT22;6194;49.010;8.414;2023-08-06T01:40:21;15.50;99.90
12264;DHT22;6194;49.010;8.414;2023-08-06T01:42:47;15.50;99.90
12264;DHT22;6194;49.010;8.414;2023-08-06T01:45:13;15.50;99.90
12264;DHT22;6194;49.010;8.414;2023-08-06T01:47:38;15.40;99.90
12264;DHT22;6194;49.010;8.414;2023-08-06T01:50:04;15.50;99.90
12264;DHT22;6194;49.010;8.414;2023-08-06T01:52:30;15.50;99.90
12264;DHT22;6194;49.010;8.414;2023-08-06T01:54:55;15.60;99.90
12264;DHT22;6194;49.010;8.414;2023-08-06T01:57:21;15.50;99.90
12264;DHT22;6194;49.010;8.414;2023-08-06T01:59:47;15.50;99.90
12264;DHT22;6194;49.010;8.414;2023-08-06T02:02:12;15.40;99.90
12264;DHT22;6194;49.010;8.414;2023-08-06T02:04:38;15.30;99.90
12264;DHT22;6194;49.010;8.414;2023-08-06T02:07:04;15.20;99.90
12264;DHT22;6194;49.010;8.414;2023-08-06T02:09:29;15.20;99.90
12264;DHT22;6194;49.010;8.414;2023-08-06T02:11:55;15.10;99.90
12264;DHT22;6194;49.010;8.414;2023-08-06T02:14:20;15.20;99.90
12264;DHT22;6194;49.010;8.414;2023-08-06T02:16:46;15.10;99.90
12264;DHT22;6194;49.010;8.414;2023-08-06T02:19:11;15.10;99.90
12264;DHT22;6194;49.010;8.414;2023-08-06T02:21:37;15.10;99.90
12264;DHT22;6194;49.010;8.414;2023-08-06T02:24:03;15.10;99.90
12264;DHT22;6194;49.010;8.414;2023-08-06T02:26:28;15.20;99.90
12264;DHT22;6194;49.010;8.414;2023-08-06T02:28:54;15.20;99.90
12264;DHT22;6194;49.010;8.414;2023-08-06T02:31:19;15.20;99.90
12264;DHT22;6194;49.010;8.414;2023-08-06T02:33:45;15.20;99.90
12264;DHT22;6194;49.010;8.414;2023-08-06T02:36:11;15.30;99.90
12264;DHT22;6194;49.010;8.414;2023-08-06T02:38:36;15.40;99.90
12264;DHT22;6194;49.010;8.414;2023-08-06T02:41:02;15.40;99.90
12264;DHT22;6194;49.010;8.414;2023-08-06T02:43:29;15.50;99.90
12264;DHT22;6194;49.010;8.414;2023-08-06T02:45:57;15.40;99.90
12264;DHT22;6194;49.010;8.414;2023-08-06T02:48:23;15.50;99.90
12264;DHT22;6194;49.010;8.414;2023-08-06T02:50:48;15.50;99.90
12264;DHT22;6194;49.010;8.414;2023-08-06T02:53:14;15.50;99.90
12264;DHT22;6194;49.010;8.414;2023-08-06T02:55:46;15.50;99.90
12264;DHT22;6194;49.010;8.414;2023-08-06T02:58:15;15.40;99.90
12264;DHT22;6194;49.010;8.414;2023-08-06T03:00:40;15.40;99.90
12264;DHT22;6194;49.010;8.414;2023-08-06T03:03:06;15.30;99.90
12264;DHT22;6194;49.010;8.414;2023-08-06T03:05:32;15.30;99.90
12264;DHT22;6194;49.010;8.414;2023-08-06T03:07:57;15.20;99.90
12264;DHT22;6194;49.010;8.414;2023-08-06T03:10:23;15.20;99.90
12264;DHT22;6194;49.010;8.414;2023-08-06T03:12:48;15.20;99.90
12264;DHT22;6194;49.010;8.414;2023-08-06T03:15:14;15.20;99.90
12264;DHT22;6194;49.010;8.414;2023-08-06T03:17:40;15.30;99.90
12264;DHT22;6194;49.010;8.414;2023-08-06T03:20:06;15.60;99.90
12264;DHT22;6194;49.010;8.414;2023-08-06T03:22:31;15.30;99.90
12264;DHT22;6194;49.010;8.414;2023-08-06T03:25:00;15.30;99.90
12264;DHT22;6194;49.010;8.414;2023-08-06T03:27:31;15.10;99.90
12264;DHT22;6194;49.010;8.414;2023-08-06T03:29:57;15.00;99.90
12264;DHT22;6194;49.010;8.414;2023-08-06T03:32:22;15.00;99.90
12264;DHT22;6194;49.010;8.414;2023-08-06T03:34:48;15.00;99.90
12264;DHT22;6194;49.010;8.414;2023-08-06T03:37:13;15.00;99.90
12264;DHT22;6194;49.010;8.414;2023-08-06T03:39:40;15.00;99.90
12264;DHT22;6194;49.010;8.414;2023-08-06T03:42:05;15.00;99.90
12264;DHT22;6194;49.010;8.414;2023-08-06T03:44:31;15.00;99.90
12264;DHT22;6194;49.010;8.414;2023-08-06T03:46:57;15.00;99.90
12264;DHT22;6194;49.010;8.414;2023-08-06T03:49:22;15.00;99.90
12264;DHT22;6194;49.010;8.414;2023-08-06T03:51:48;15.00;99.90
12264;DHT22;6194;49.010;8.414;2023-08-06T03:54:13;15.00;99.90
12264;DHT22;6194;49.010;8.414;2023-08-06T03:56:39;15.00;99.90
12264;DHT22;6194;49.010;8.414;2023-08-06T03:59:04;14.90;99.90
12264;DHT22;6194;49.010;8.414;2023-08-06T04:01:30;14.80;99.90
12264;DHT22;6194;49.010;8.414;2023-08-06T04:03:56;14.80;99.90
12264;DHT22;6194;49.010;8.414;2023-08-06T04:06:21;14.50;99.90
12264;DHT22;6194;49.010;8.414;2023-08-06T04:08:47;14.40;99.90
12264;DHT22;6194;49.010;8.414;2023-08-06T04:11:12;14.40;99.90
12264;DHT22;6194;49.010;8.414;2023-08-06T04:13:38;14.40;99.90
12264;DHT22;6194;49.010;8.414;2023-08-06T04:16:07;14.50;99.90
12264;DHT22;6194;49.010;8.414;2023-08-06T04:18:32;14.50;99.90
12264;DHT22;6194;49.010;8.414;2023-08-06T04:20:58;14.40;99.90
12264;DHT22;6194;49.010;8.414;2023-08-06T04:23:24;14.40;99.90
12264;DHT22;6194;49.010;8.414;2023-08-06T04:25:50;14.40;99.90
12264;DHT22;6194;49.010;8.414;2023-08-06T04:28:15;14.40;99.90
12264;DHT22;6194;49.010;8.414;2023-08-06T04:30:41;14.40;99.90
12264;DHT22;6194;49.010;8.414;2023-08-06T04:33:06;14.50;99.90
12264;DHT22;6194;49.010;8.414;2023-08-06T04:35:32;14.40;99.90
12264;DHT22;6194;49.010;8.414;2023-08-06T04:37:57;14.40;99.90
12264;DHT22;6194;49.010;8.414;2023-08-06T04:40:23;14.50;99.90
12264;DHT22;6194;49.010;8.414;2023-08-06T04:42:48;14.50;99.90
12264;DHT22;6194;49.010;8.414;2023-08-06T04:45:14;14.50;99.90
12264;DHT22;6194;49.010;8.414;2023-08-06T04:47:40;14.50;99.90
12264;DHT22;6194;49.010;8.414;2023-08-06T04:50:05;14.50;99.90
12264;DHT22;6194;49.010;8.414;2023-08-06T04:52:31;14.50;99.90
12264;DHT22;6194;49.010;8.414;2023-08-06T04:54:57;14.50;99.90
12264;DHT22;6194;49.010;8.414;2023-08-06T04:57:23;14.60;99.90
12264;DHT22;6194;49.010;8.414;2023-08-06T04:59:49;14.60;99.90
12264;DHT22;6194;49.010;8.414;2023-08-06T05:02:14;14.60;99.90
12264;DHT22;6194;49.010;8.414;2023-08-06T05:04:40;14.70;99.90
12264;DHT22;6194;49.010;8.414;2023-08-06T05:07:05;14.70;99.90
12264;DHT22;6194;49.010;8.414;2023-08-06T05:09:31;14.80;99.90
12264;DHT22;6194;49.010;8.414;2023-08-06T05:11:57;15.10;99.90
12264;DHT22;6194;49.010;8.414;2023-08-06T05:14:23;15.10;99.90
12264;DHT22;6194;49.010;8.414;2023-08-06T05:16:48;15.10;99.90
12264;DHT22;6194;49.010;8.414;2023-08-06T05:19:14;15.20;99.90
12264;DHT22;6194;49.010;8.414;2023-08-06T05:21:39;15.30;99.90
12264;DHT22;6194;49.010;8.414;2023-08-06T05:24:05;15.30;99.90
12264;DHT22;6194;49.010;8.414;2023-08-06T05:26:31;15.30;99.90
12264;DHT22;6194;49.010;8.414;2023-08-06T05:28:56;15.20;99.90
12264;DHT22;6194;49.010;8.414;2023-08-06T05:31:22;15.20;99.90
12264;DHT22;6194;49.010;8.414;2023-08-06T05:33:47;15.20;99.90
12264;DHT22;6194;49.010;8.414;2023-08-06T05:36:13;15.00;99.90
12264;DHT22;6194;49.010;8.414;2023-08-06T05:38:38;15.00;99.90
12264;DHT22;6194;49.010;8.414;2023-08-06T05:41:04;15.00;99.90
12264;DHT22;6194;49.010;8.414;2023-08-06T05:43:29;14.90;99.90
12264;DHT22;6194;49.010;8.414;2023-08-06T05:45:56;14.90;99.90
12264;DHT22;6194;49.010;8.414;2023-08-06T05:48:22;14.80;99.90
12264;DHT22;6194;49.010;8.414;2023-08-06T05:50:50;14.70;99.90
12264;DHT22;6194;49.010;8.414;2023-08-06T05:53:15;14.60;99.90
12264;DHT22;6194;49.010;8.414;2023-08-06T05:55:41;14.50;99.90
12264;DHT22;6194;49.010;8.414;2023-08-06T05:58:07;14.60;99.90
12264;DHT22;6194;49.010;8.414;2023-08-06T06:00:32;14.60;99.90
12264;DHT22;6194;49.010;8.414;2023-08-06T06:02:58;14.60;99.90
12264;DHT22;6194;49.010;8.414;2023-08-06T06:05:23;14.70;99.90
12264;DHT22;6194;49.010;8.414;2023-08-06T06:07:49;14.70;99.90
12264;DHT22;6194;49.010;8.414;2023-08-06T06:10:15;14.80;99.90
12264;DHT22;6194;49.010;8.414;2023-08-06T06:12:40;14.80;99.90
12264;DHT22;6194;49.010;8.414;2023-08-06T06:15:06;14.70;99.90
12264;DHT22;6194;49.010;8.414;2023-08-06T06:17:32;14.70;99.90
12264;DHT22;6194;49.010;8.414;2023-08-06T06:19:57;15.00;99.90
12264;DHT22;6194;49.010;8.414;2023-08-06T06:22:23;15.00;99.90
12264;DHT22;6194;49.010;8.414;2023-08-06T06:24:49;15.10;99.90
12264;DHT22;6194;49.010;8.414;2023-08-06T06:27:14;15.20;99.90
12264;DHT22;6194;49.010;8.414;2023-08-06T06:29:40;15.30;99.90
12264;DHT22;6194;49.010;8.414;2023-08-06T06:32:05;15.40;99.90
12264;DHT22;6194;49.010;8.414;2023-08-06T06:34:31;15.40;99.90
12264;DHT22;6194;49.010;8.414;2023-08-06T06:36:57;15.30;99.90
12264;DHT22;6194;49.010;8.414;2023-08-06T06:39:22;15.20;99.90
12264;DHT22;6194;49.010;8.414;2023-08-06T06:41:48;15.20;99.90
12264;DHT22;6194;49.010;8.414;2023-08-06T06:44:13;15.00;99.90
12264;DHT22;6194;49.010;8.414;2023-08-06T06:46:40;15.00;99.90
12264;DHT22;6194;49.010;8.414;2023-08-06T06:49:05;14.90;99.90
12264;DHT22;6194;49.010;8.414;2023-08-06T06:51:31;15.30;99.90
12264;DHT22;6194;49.010;8.414;2023-08-06T06:53:59;15.00;99.90
12264;DHT22;6194;49.010;8.414;2023-08-06T06:56:25;15.00;99.90
12264;DHT22;6194;49.010;8.414;2023-08-06T06:58:51;15.10;99.90
12264;DHT22;6194;49.010;8.414;2023-08-06T07:01:16;15.00;99.90
12264;DHT22;6194;49.010;8.414;2023-08-06T07:03:42;15.00;99.90
12264;DHT22;6194;49.010;8.414;2023-08-06T07:06:07;15.10;99.90
12264;DHT22;6194;49.010;8.414;2023-08-06T07:08:33;15.00;99.90
12264;DHT22;6194;49.010;8.414;2023-08-06T07:11:02;15.00;99.90
12264;DHT22;6194;49.010;8.414;2023-08-06T07:13:28;15.10;99.90
12264;DHT22;6194;49.010;8.414;2023-08-06T07:15:54;15.00;99.90
12264;DHT22;6194;49.010;8.414;2023-08-06T07:18:20;15.00;99.90
12264;DHT22;6194;49.010;8.414;2023-08-06T07:20:53;15.10;99.90
12264;DHT22;6194;49.010;8.414;2023-08-06T07:23:21;15.10;99.90
12264;DHT22;6194;49.010;8.414;2023-08-06T07:25:48;15.30;99.90
12264;DHT22;6194;49.010;8.414;2023-08-06T07:28:14;14.10;99.90
12264;DHT22;6194;49.010;8.414;2023-08-06T07:30:40;15.50;99.90
12264;DHT22;6194;49.010;8.414;2023-08-06T07:33:06;15.90;99.90
12264;DHT22;6194;49.010;8.414;2023-08-06T07:35:32;15.70;99.90
12264;DHT22;6194;49.010;8.414;2023-08-06T07:37:58;15.70;99.90
12264;DHT22;6194;49.010;8.414;2023-08-06T07:40:24;15.60;99.90
12264;DHT22;6194;49.010;8.414;2023-08-06T07:42:49;15.40;99.90
12264;DHT22;6194;49.010;8.414;2023-08-06T07:45:15;15.40;99.90
12264;DHT22;6194;49.010;8.414;2023-08-06T07:47:40;15.20;99.90
12264;DHT22;6194;49.010;8.414;2023-08-06T07:50:07;15.10;99.90
12264;DHT22;6194;49.010;8.414;2023-08-06T07:52:32;14.90;99.90
12264;DHT22;6194;49.010;8.414;2023-08-06T07:54:58;14.80;99.90
12264;DHT22;6194;49.010;8.414;2023-08-06T07:57:24;14.90;99.90
12264;DHT22;6194;49.010;8.414;2023-08-06T07:59:49;15.00;99.90
12264;DHT22;6194;49.010;8.414;2023-08-06T08:02:15;15.10;99.90
12264;DHT22;6194;49.010;8.414;2023-08-06T08:04:41;15.20;99.90
12264;DHT22;6194;49.010;8.414;2023-08-06T08:07:06;15.20;99.90
12264;DHT22;6194;49.010;8.414;2023-08-06T08:09:34;15.10;99.90
12264;DHT22;6194;49.010;8.414;2023-08-06T08:12:00;15.00;99.90
12264;DHT22;6194;49.010;8.414;2023-08-06T08:14:28;14.90;99.90
12264;DHT22;6194;49.010;8.414;2023-08-06T08:16:54;14.70;99.90
12264;DHT22;6194;49.010;8.414;2023-08-06T08:19:20;14.70;99.90
12264;DHT22;6194;49.010;8.414;2023-08-06T08:21:46;14.80;99.90
12264;DHT22;6194;49.010;8.414;2023-08-06T08:24:12;14.60;99.90
12264;DHT22;6194;49.010;8.414;2023-08-06T08:26:37;14.80;99.90
12264;DHT22;6194;49.010;8.414;2023-08-06T08:29:03;14.90;99.90
12264;DHT22;6194;49.010;8.414;2023-08-06T08:31:28;15.00;99.90
12264;DHT22;6194;49.010;8.414;2023-08-06T08:33:55;15.00;99.90
12264;DHT22;6194;49.010;8.414;2023-08-06T08:36:20;15.20;99.90
12264;DHT22;6194;49.010;8.414;2023-08-06T08:38:46;15.00;99.90
12264;DHT22;6194;49.010;8.414;2023-08-06T08:41:12;14.90;99.90
12264;DHT22;6194;49.010;8.414;2023-08-06T08:43:38;14.80;99.90
12264;DHT22;6194;49.010;8.414;2023-08-06T08:46:06;14.90;99.90
12264;DHT22;6194;49.010;8.414;2023-08-06T08:48:33;15.00;99.90
12264;DHT22;6194;49.010;8.414;2023-08-06T08:50:59;15.00;99.90
12264;DHT22;6194;49.010;8.414;2023-08-06T08:53:25;14.90;99.90
12264;DHT22;6194;49.010;8.414;2023-08-06T08:55:52;15.20;99.90
12264;DHT22;6194;49.010;8.414;2023-08-06T08:58:18;15.60;99.90
12264;DHT22;6194;49.010;8.414;2023-08-06T09:00:46;15.80;99.90
12264;DHT22;6194;49.010;8.414;2023-08-06T09:03:13;16.10;99.90
12264;DHT22;6194;49.010;8.414;2023-08-06T09:05:44;16.00;99.90
12264;DHT22;6194;49.010;8.414;2023-08-06T09:08:11;16.30;99.90
12264;DHT22;6194;49.010;8.414;2023-08-06T09:10:40;16.30;99.90
12264;DHT22;6194;49.010;8.414;2023-08-06T09:13:06;16.00;99.90
12264;DHT22;6194;49.010;8.414;2023-08-06T09:15:32;16.20;99.90
12264;DHT22;6194;49.010;8.414;2023-08-06T09:17:59;16.10;99.90
12264;DHT22;6194;49.010;8.414;2023-08-06T09:20:24;16.10;99.90
12264;DHT22;6194;49.010;8.414;2023-08-06T09:22:53;16.10;99.90
12264;DHT22;6194;49.010;8.414;2023-08-06T09:25:23;16.10;99.90
12264;DHT22;6194;49.010;8.414;2023-08-06T09:27:50;16.10;99.90
12264;DHT22;6194;49.010;8.414;2023-08-06T09:30:30;16.20;99.90
12264;DHT22;6194;49.010;8.414;2023-08-06T09:32:59;16.50;99.90
12264;DHT22;6194;49.010;8.414;2023-08-06T09:35:27;16.30;99.90
12264;DHT22;6194;49.010;8.414;2023-08-06T09:37:53;16.40;99.90
12264;DHT22;6194;49.010;8.414;2023-08-06T09:40:25;16.20;99.90
12264;DHT22;6194;49.010;8.414;2023-08-06T09:42:51;16.10;99.90
12264;DHT22;6194;49.010;8.414;2023-08-06T09:45:17;15.90;99.90
12264;DHT22;6194;49.010;8.414;2023-08-06T09:47:43;15.90;99.90
12264;DHT22;6194;49.010;8.414;2023-08-06T09:50:18;15.90;99.90
12264;DHT22;6194;49.010;8.414;2023-08-06T09:52:44;15.90;99.90
12264;DHT22;6194;49.010;8.414;2023-08-06T09:55:13;15.90;99.90
12264;DHT22;6194;49.010;8.414;2023-08-06T09:57:40;15.90;99.90
12264;DHT22;6194;49.010;8.414;2023-08-06T10:00:10;15.90;99.90
12264;DHT22;6194;49.010;8.414;2023-08-06T10:02:41;15.90;99.90
12264;DHT22;6194;49.010;8.414;2023-08-06T10:05:07;16.10;99.90
12264;DHT22;6194;49.010;8.414;2023-08-06T10:07:34;15.90;99.90
12264;DHT22;6194;49.010;8.414;2023-08-06T10:10:00;15.80;99.90
12264;DHT22;6194;49.010;8.414;2023-08-06T10:12:29;15.60;99.90
12264;DHT22;6194;49.010;8.414;2023-08-06T10:14:57;15.50;99.90
12264;DHT22;6194;49.010;8.414;2023-08-06T10:17:24;15.40;99.90
12264;DHT22;6194;49.010;8.414;2023-08-06T10:19:50;15.40;99.90
12264;DHT22;6194;49.010;8.414;2023-08-06T10:22:19;15.50;99.90
12264;DHT22;6194;49.010;8.414;2023-08-06T10:24:52;15.40;99.90
12264;DHT22;6194;49.010;8.414;2023-08-06T10:30:24;15.00;99.90
12264;DHT22;6194;49.010;8.414;2023-08-06T10:32:50;15.00;99.90
12264;DHT22;6194;49.010;8.414;2023-08-06T10:38:20;14.90;99.90
12264;DHT22;6194;49.010;8.414;2023-08-06T10:43:34;15.10;99.90
12264;DHT22;6194;49.010;8.414;2023-08-06T10:46:02;15.00;99.90
12264;DHT22;6194;49.010;8.414;2023-08-06T10:48:34;15.10;99.90
12264;DHT22;6194;49.010;8.414;2023-08-06T10:51:01;15.00;99.90
12264;DHT22;6194;49.010;8.414;2023-08-06T10:53:30;15.00;99.90
12264;DHT22;6194;49.010;8.414;2023-08-06T10:55:55;15.00;99.90
12264;DHT22;6194;49.010;8.414;2023-08-06T10:58:21;15.00;99.90
12264;DHT22;6194;49.010;8.414;2023-08-06T11:00:47;15.10;99.90
12264;DHT22;6194;49.010;8.414;2023-08-06T11:03:12;14.90;99.90
12264;DHT22;6194;49.010;8.414;2023-08-06T11:05:39;14.80;99.90
12264;DHT22;6194;49.010;8.414;2023-08-06T11:08:04;14.80;99.90
12264;DHT22;6194;49.010;8.414;2023-08-06T11:10:33;14.70;99.90
12264;DHT22;6194;49.010;8.414;2023-08-06T11:13:03;14.70;99.90
12264;DHT22;6194;49.010;8.414;2023-08-06T11:15:30;14.80;99.90
12264;DHT22;6194;49.010;8.414;2023-08-06T11:17:56;14.80;99.90
12264;DHT22;6194;49.010;8.414;2023-08-06T11:20:22;14.80;99.90
12264;DHT22;6194;49.010;8.414;2023-08-06T11:22:50;14.80;99.90
12264;DHT22;6194;49.010;8.414;2023-08-06T11:25:16;14.90;99.90
12264;DHT22;6194;49.010;8.414;2023-08-06T11:27:41;15.00;99.90
12264;DHT22;6194;49.010;8.414;2023-08-06T11:30:07;15.10;99.90
12264;DHT22;6194;49.010;8.414;2023-08-06T11:32:33;15.20;99.90
12264;DHT22;6194;49.010;8.414;2023-08-06T11:35:09;15.30;99.90
12264;DHT22;6194;49.010;8.414;2023-08-06T11:37:36;15.40;99.90
12264;DHT22;6194;49.010;8.414;2023-08-06T11:40:08;15.50;99.90
12264;DHT22;6194;49.010;8.414;2023-08-06T11:42:35;15.50;99.90
12264;DHT22;6194;49.010;8.414;2023-08-06T11:45:02;15.50;99.90
12264;DHT22;6194;49.010;8.414;2023-08-06T11:47:28;15.60;99.90
12264;DHT22;6194;49.010;8.414;2023-08-06T11:49:54;15.70;99.90
12264;DHT22;6194;49.010;8.414;2023-08-06T11:52:20;15.80;99.90
12264;DHT22;6194;49.010;8.414;2023-08-06T11:55:06;15.80;99.90
12264;DHT22;6194;49.010;8.414;2023-08-06T11:57:37;15.70;99.90
12264;DHT22;6194;49.010;8.414;2023-08-06T12:00:10;15.90;99.90
12264;DHT22;6194;49.010;8.414;2023-08-06T12:02:38;16.00;99.90
12264;DHT22;6194;49.010;8.414;2023-08-06T12:05:10;16.10;99.90
12264;DHT22;6194;49.010;8.414;2023-08-06T12:07:44;16.20;99.90
12264;DHT22;6194;49.010;8.414;2023-08-06T12:10:12;16.10;99.90
12264;DHT22;6194;49.010;8.414;2023-08-06T12:12:38;16.20;99.90
12264;DHT22;6194;49.010;8.414;2023-08-06T12:15:05;16.20;99.90
12264;DHT22;6194;49.010;8.414;2023-08-06T12:17:31;16.10;99.90
12264;DHT22;6194;49.010;8.414;2023-08-06T12:19:57;16.20;99.90
12264;DHT22;6194;49.010;8.414;2023-08-06T12:22:23;16.00;99.90
12264;DHT22;6194;49.010;8.414;2023-08-06T12:24:49;16.00;99.90
12264;DHT22;6194;49.010;8.414;2023-08-06T12:27:15;16.20;99.90
12264;DHT22;6194;49.010;8.414;2023-08-06T12:29:44;16.20;99.90
12264;DHT22;6194;49.010;8.414;2023-08-06T12:32:11;16.30;99.90
12264;DHT22;6194;49.010;8.414;2023-08-06T12:34:41;16.40;99.90
12264;DHT22;6194;49.010;8.414;2023-08-06T12:37:09;16.50;99.90
12264;DHT22;6194;49.010;8.414;2023-08-06T12:39:36;16.60;99.90
12264;DHT22;6194;49.010;8.414;2023-08-06T12:42:03;16.70;99.90
12264;DHT22;6194;49.010;8.414;2023-08-06T12:44:29;16.70;99.90
12264;DHT22;6194;49.010;8.414;2023-08-06T12:46:54;16.70;99.90
12264;DHT22;6194;49.010;8.414;2023-08-06T12:49:20;16.70;99.90
12264;DHT22;6194;49.010;8.414;2023-08-06T12:51:49;16.60;99.90
12264;DHT22;6194;49.010;8.414;2023-08-06T12:54:19;16.40;99.90
12264;DHT22;6194;49.010;8.414;2023-08-06T12:56:45;16.20;99.90
12264;DHT22;6194;49.010;8.414;2023-08-06T12:59:12;16.30;99.90
12264;DHT22;6194;49.010;8.414;2023-08-06T13:01:38;16.80;99.90
12264;DHT22;6194;49.010;8.414;2023-08-06T13:04:03;17.40;99.90
12264;DHT22;6194;49.010;8.414;2023-08-06T13:06:29;17.70;99.90
12264;DHT22;6194;49.010;8.414;2023-08-06T13:08:56;18.00;99.90
12264;DHT22;6194;49.010;8.414;2023-08-06T13:11:22;18.10;99.90
12264;DHT22;6194;49.010;8.414;2023-08-06T13:13:48;18.00;99.90
12264;DHT22;6194;49.010;8.414;2023-08-06T13:16:14;18.10;99.90
12264;DHT22;6194;49.010;8.414;2023-08-06T13:18:40;18.40;99.90
12264;DHT22;6194;49.010;8.414;2023-08-06T13:21:05;18.60;99.90
12264;DHT22;6194;49.010;8.414;2023-08-06T13:23:31;18.70;99.90
12264;DHT22;6194;49.010;8.414;2023-08-06T13:25:57;18.60;99.90
12264;DHT22;6194;49.010;8.414;2023-08-06T13:28:23;18.50;99.90
12264;DHT22;6194;49.010;8.414;2023-08-06T13:30:49;18.50;99.90
12264;DHT22;6194;49.010;8.414;2023-08-06T13:33:14;18.50;99.90
12264;DHT22;6194;49.010;8.414;2023-08-06T13:35:40;18.70;99.90
12264;DHT22;6194;49.010;8.414;2023-08-06T13:38:06;19.10;99.90
12264;DHT22;6194;49.010;8.414;2023-08-06T13:40:33;19.40;99.90
12264;DHT22;6194;49.010;8.414;2023-08-06T13:42:59;19.40;99.90
12264;DHT22;6194;49.010;8.414;2023-08-06T13:45:25;19.50;99.90
12264;DHT22;6194;49.010;8.414;2023-08-06T13:47:51;19.40;99.90
12264;DHT22;6194;49.010;8.414;2023-08-06T13:50:16;19.30;99.90
12264;DHT22;6194;49.010;8.414;2023-08-06T13:52:42;19.40;99.90
12264;DHT22;6194;49.010;8.414;2023-08-06T13:55:08;19.20;99.90
12264;DHT22;6194;49.010;8.414;2023-08-06T13:57:37;18.90;99.90
12264;DHT22;6194;49.010;8.414;2023-08-06T14:00:03;18.60;99.90
12264;DHT22;6194;49.010;8.414;2023-08-06T14:02:28;18.80;99.90
12264;DHT22;6194;49.010;8.414;2023-08-06T14:04:54;18.80;99.90
12264;DHT22;6194;49.010;8.414;2023-08-06T14:07:20;18.90;99.90
12264;DHT22;6194;49.010;8.414;2023-08-06T14:09:46;19.10;99.90
12264;DHT22;6194;49.010;8.414;2023-08-06T14:12:12;19.20;99.90
12264;DHT22;6194;49.010;8.414;2023-08-06T14:14:38;19.40;99.90
12264;DHT22;6194;49.010;8.414;2023-08-06T14:17:04;19.50;99.90
12264;DHT22;6194;49.010;8.414;2023-08-06T14:19:29;19.80;99.90
12264;DHT22;6194;49.010;8.414;2023-08-06T14:21:55;19.80;99.90
12264;DHT22;6194;49.010;8.414;2023-08-06T14:24:21;19.80;99.90
12264;DHT22;6194;49.010;8.414;2023-08-06T14:26:46;19.60;99.90
12264;DHT22;6194;49.010;8.414;2023-08-06T14:29:12;19.50;99.90
12264;DHT22;6194;49.010;8.414;2023-08-06T14:31:39;19.80;99.90
12264;DHT22;6194;49.010;8.414;2023-08-06T14:34:05;20.10;99.90
12264;DHT22;6194;49.010;8.414;2023-08-06T14:36:30;20.10;99.90
12264;DHT22;6194;49.010;8.414;2023-08-06T14:38:56;19.70;99.90
12264;DHT22;6194;49.010;8.414;2023-08-06T14:41:21;19.50;99.90
12264;DHT22;6194;49.010;8.414;2023-08-06T14:43:47;19.10;99.90
12264;DHT22;6194;49.010;8.414;2023-08-06T14:46:12;18.80;99.90
12264;DHT22;6194;49.010;8.414;2023-08-06T14:48:38;18.50;99.90
12264;DHT22;6194;49.010;8.414;2023-08-06T14:51:04;18.50;99.90
12264;DHT22;6194;49.010;8.414;2023-08-06T14:53:30;18.60;99.90
12264;DHT22;6194;49.010;8.414;2023-08-06T14:55:56;18.80;99.90
12264;DHT22;6194;49.010;8.414;2023-08-06T14:58:21;18.80;99.90
12264;DHT22;6194;49.010;8.414;2023-08-06T15:00:47;19.20;99.90
12264;DHT22;6194;49.010;8.414;2023-08-06T15:03:12;19.50;99.90
12264;DHT22;6194;49.010;8.414;2023-08-06T15:05:38;19.70;99.90
12264;DHT22;6194;49.010;8.414;2023-08-06T15:08:04;19.90;99.90
12264;DHT22;6194;49.010;8.414;2023-08-06T15:10:29;20.10;99.90
12264;DHT22;6194;49.010;8.414;2023-08-06T15:12:55;19.90;99.90
12264;DHT22;6194;49.010;8.414;2023-08-06T15:15:21;19.80;99.90
12264;DHT22;6194;49.010;8.414;2023-08-06T15:17:47;19.30;99.90
12264;DHT22;6194;49.010;8.414;2023-08-06T15:20:13;19.10;99.90
12264;DHT22;6194;49.010;8.414;2023-08-06T15:22:39;19.00;99.90
12264;DHT22;6194;49.010;8.414;2023-08-06T15:25:05;18.90;99.90
12264;DHT22;6194;49.010;8.414;2023-08-06T15:27:30;18.90;99.90
12264;DHT22;6194;49.010;8.414;2023-08-06T15:29:57;18.80;99.90
12264;DHT22;6194;49.010;8.414;2023-08-06T15:32:23;18.30;99.90
12264;DHT22;6194;49.010;8.414;2023-08-06T15:34:50;18.30;99.90
12264;DHT22;6194;49.010;8.414;2023-08-06T15:37:19;18.00;99.90
12264;DHT22;6194;49.010;8.414;2023-08-06T15:39:45;17.90;99.90
12264;DHT22;6194;49.010;8.414;2023-08-06T15:42:12;17.90;99.90
12264;DHT22;6194;49.010;8.414;2023-08-06T15:44:38;17.80;99.90
12264;DHT22;6194;49.010;8.414;2023-08-06T15:47:04;17.70;99.90
12264;DHT22;6194;49.010;8.414;2023-08-06T15:49:29;17.50;99.90
12264;DHT22;6194;49.010;8.414;2023-08-06T15:51:55;17.10;99.90
12264;DHT22;6194;49.010;8.414;2023-08-06T15:54:20;16.90;99.90
12264;DHT22;6194;49.010;8.414;2023-08-06T15:56:46;16.50;99.90